This is the latest recevied weather packets stored in our database for station/object KC0RPY. If no packets are shown the sender has not sent any weather packets the latest 1 day(s).
| Time | Temp. | Humidity | Pressure | Rain* | Wind** | Luminosity | Snow |
|---|---|---|---|---|---|---|---|
| 1778099572 | 14.44° C | 41% | 1019.1 hPa | 0 mm | - | 704 W/m² | - |
| 1778098662 | 15° C | 40% | 1019.1 hPa | 0 mm | - | 711 W/m² | - |
| 1778098056 | 15° C | 39% | 1019.1 hPa | 0 mm | - | 728 W/m² | - |
| 1778096539 | 14.44° C | 41% | 1019.5 hPa | 0 mm | - | 708 W/m² | - |
| 1778096237 | 14.44° C | 39% | 1019.5 hPa | 0 mm | - | 724 W/m² | - |
| 1778095326 | 14.44° C | 38% | 1019.5 hPa | 0 mm | - | 742 W/m² | - |
| 1778095018 | 13.89° C | 41% | 1019.5 hPa | 0 mm | - | 762 W/m² | - |
| 1778093805 | 14.44° C | 40% | 1019.5 hPa | 0 mm | - | 766 W/m² | - |
| 1778093501 | 14.44° C | 45% | 1019.5 hPa | 0 mm | - | 767 W/m² | - |
| 1778093199 | 13.89° C | 42% | 1019.8 hPa | 0 mm | - | 768 W/m² | - |
| 1778092896 | 14.44° C | 41% | 1019.8 hPa | 0 mm | - | 772 W/m² | - |
| 1778090471 | 12.78° C | 40% | 1019.8 hPa | 0 mm | - | 393 W/m² | - |
| 1778089258 | 12.78° C | 42% | 1020.2 hPa | 0 mm | - | 285 W/m² | - |
| 1778088956 | 12.78° C | 43% | 1020.2 hPa | 0 mm | - | 287 W/m² | - |
| 1778088350 | 13.33° C | 44% | 1020.5 hPa | 0 mm | - | 347 W/m² | - |
| 1778088046 | 12.78° C | 40% | 1020.2 hPa | 0 mm | - | 375 W/m² | - |
| 1778087138 | 13.89° C | 44% | 1020.2 hPa | 0 mm | - | 514 W/m² | - |
| 1778086224 | 12.22° C | 45% | 1020.5 hPa | 0 mm | - | 457 W/m² | - |
| 1778085921 | 12.22° C | 44% | 1020.5 hPa | 0 mm | - | 415 W/m² | - |
| 1778084707 | 12.78° C | 46% | 1020.2 hPa | 0 mm | - | 399 W/m² | - |
| 1778084404 | 12.22° C | 47% | 1020.5 hPa | 0 mm | - | 404 W/m² | - |
| 1778083496 | 12.22° C | 45% | 1019.8 hPa | 0 mm | - | 385 W/m² | - |
| 1778081777 | 12.22° C | 48% | 1019.8 hPa | 0 mm | - | 415 W/m² | - |
| 1778080264 | 12.78° C | 55% | 1019.5 hPa | 0 mm | - | 666 W/m² | - |
| 1778079961 | 12.22° C | 57% | 1019.5 hPa | 0 mm | - | 637 W/m² | - |
* Rain latest hour (hover to see other rain measurements)
** Current wind speed in m/s (hover to see current wind gust speed)